createdAt,value
2019-06-08T00:02:16.532Z,22.48
2019-06-08T00:04:47.747Z,22.41
2019-06-08T00:07:18.926Z,22.41
2019-06-08T00:09:50.645Z,22.42
2019-06-08T00:12:22.991Z,22.37
2019-06-08T00:14:54.531Z,22.30
2019-06-08T00:17:37.228Z,22.31
2019-06-08T00:19:58.549Z,22.34
2019-06-08T00:22:29.832Z,22.32
2019-06-08T00:25:01.083Z,22.28
2019-06-08T00:27:33.798Z,22.23
2019-06-08T00:30:07.965Z,22.16
2019-06-08T00:32:39.217Z,22.10
2019-06-08T00:35:10.619Z,22.11
2019-06-08T00:37:41.767Z,22.06
2019-06-08T00:40:14.709Z,22.03
2019-06-08T00:42:45.923Z,22.00
2019-06-08T00:45:17.651Z,21.96
2019-06-08T00:47:48.983Z,21.94
2019-06-08T00:50:21.033Z,21.88
2019-06-08T00:52:52.585Z,21.86
2019-06-08T00:55:23.861Z,21.81
2019-06-08T00:57:55.183Z,21.77
2019-06-08T01:00:26.862Z,21.76
2019-06-08T01:02:58.171Z,21.73
2019-06-08T01:05:30.253Z,21.71
2019-06-08T01:08:01.362Z,21.68
2019-06-08T01:10:32.505Z,21.67
2019-06-08T01:13:03.791Z,21.65
2019-06-08T01:15:35.257Z,21.61
2019-06-08T01:18:06.544Z,21.59
2019-06-08T01:20:37.751Z,21.56
2019-06-08T01:23:09.163Z,21.57
2019-06-08T01:25:40.484Z,21.56
2019-06-08T01:28:11.657Z,21.55
2019-06-08T01:30:42.891Z,21.54
2019-06-08T01:33:13.906Z,21.54
2019-06-08T01:35:45.068Z,21.50
2019-06-08T01:38:16.325Z,21.50
2019-06-08T01:40:47.467Z,21.48
2019-06-08T01:43:18.690Z,21.48
2019-06-08T01:45:49.844Z,21.40
2019-06-08T01:48:22.300Z,21.41
2019-06-08T01:50:54.735Z,21.41
2019-06-08T01:53:26.874Z,21.39
2019-06-08T01:55:58.043Z,21.27
2019-06-08T01:58:29.448Z,21.34
2019-06-08T02:01:00.684Z,21.29
2019-06-08T02:03:32.750Z,21.29
2019-06-08T02:06:04.300Z,21.28
2019-06-08T02:08:35.655Z,21.25
2019-06-08T02:11:07.263Z,21.23
2019-06-08T02:13:38.550Z,21.20
2019-06-08T02:16:09.754Z,21.18
2019-06-08T02:18:50.211Z,21.19
2019-06-08T02:21:13.699Z,21.17
2019-06-08T02:23:44.712Z,21.18
2019-06-08T02:26:15.944Z,21.04
2019-06-08T02:28:47.136Z,21.00
2019-06-08T02:31:18.481Z,20.98
2019-06-08T02:33:49.538Z,20.93
2019-06-08T02:36:20.543Z,20.96
2019-06-08T02:38:51.591Z,21.04
2019-06-08T02:41:22.747Z,21.01
2019-06-08T02:43:53.883Z,20.92
2019-06-08T02:46:25.478Z,20.95
2019-06-08T02:49:04.110Z,20.96
2019-06-08T02:51:31.272Z,20.97
2019-06-08T02:54:03.405Z,20.97
2019-06-08T02:56:37.316Z,20.98
2019-06-08T02:59:09.376Z,20.96
2019-06-08T03:01:43.190Z,21.00
2019-06-08T03:04:17.012Z,20.95
2019-06-08T03:06:51.306Z,21.00
2019-06-08T03:09:25.769Z,21.00
2019-06-08T03:11:57.618Z,21.05
2019-06-08T03:14:30.608Z,21.05
2019-06-08T03:17:01.951Z,21.03
2019-06-08T03:19:33.307Z,20.95
2019-06-08T03:22:04.751Z,20.91
2019-06-08T03:24:36.600Z,20.93
2019-06-08T03:27:07.751Z,20.97
2019-06-08T03:29:39.483Z,20.99
2019-06-08T03:32:11.602Z,21.03
2019-06-08T03:34:51.077Z,21.08
2019-06-08T03:37:15.736Z,21.14
2019-06-08T03:39:46.857Z,21.20
2019-06-08T03:42:18.232Z,21.24
2019-06-08T03:44:49.419Z,21.30
2019-06-08T03:47:20.653Z,21.34
2019-06-08T03:49:57.075Z,21.38
2019-06-08T03:52:24.585Z,21.42
2019-06-08T03:54:55.548Z,21.45
2019-06-08T03:57:26.462Z,21.50
2019-06-08T03:59:57.503Z,21.56
2019-06-08T04:02:28.817Z,21.61
2019-06-08T04:05:00.066Z,21.68
2019-06-08T04:07:31.158Z,21.73
2019-06-08T04:10:02.764Z,21.75
2019-06-08T04:12:34.004Z,21.81
2019-06-08T04:15:07.323Z,21.84
2019-06-08T04:17:39.699Z,21.88
2019-06-08T04:20:12.196Z,21.93
2019-06-08T04:22:47.144Z,22.02
2019-06-08T04:25:19.088Z,22.02
2019-06-08T04:27:51.027Z,22.04
2019-06-08T04:30:22.703Z,22.07
2019-06-08T04:32:53.653Z,22.12
2019-06-08T04:35:24.618Z,22.17
2019-06-08T04:37:55.577Z,22.20
2019-06-08T04:40:26.680Z,22.23
2019-06-08T04:42:57.751Z,22.28
2019-06-08T04:45:28.889Z,22.33
2019-06-08T04:47:59.984Z,22.40
2019-06-08T04:50:31.105Z,22.41
2019-06-08T04:53:01.925Z,22.46
2019-06-08T04:55:33.174Z,22.50
2019-06-08T04:58:04.502Z,22.58
2019-06-08T05:00:35.626Z,22.57
2019-06-08T05:03:06.909Z,22.60
2019-06-08T05:05:39.379Z,22.65
2019-06-08T05:08:11.609Z,22.67
2019-06-08T05:10:43.253Z,22.69
2019-06-08T05:13:14.618Z,22.72
2019-06-08T05:15:45.585Z,22.76
2019-06-08T05:18:16.593Z,22.84
2019-06-08T05:20:49.346Z,22.89
2019-06-08T05:23:20.315Z,22.94
2019-06-08T05:25:51.351Z,23.02
2019-06-08T05:28:22.499Z,23.04
2019-06-08T05:30:53.359Z,23.11
2019-06-08T05:33:24.421Z,23.17
2019-06-08T05:35:55.531Z,23.23
2019-06-08T05:38:26.511Z,23.23
2019-06-08T05:40:57.551Z,23.32
2019-06-08T05:43:28.404Z,23.38
2019-06-08T05:45:59.527Z,23.46
2019-06-08T05:48:30.818Z,23.54
2019-06-08T05:51:04.279Z,23.60
2019-06-08T05:53:34.507Z,23.69
2019-06-08T05:56:05.842Z,23.77
2019-06-08T05:58:36.843Z,23.79
2019-06-08T06:01:08.059Z,23.88
2019-06-08T06:03:40.331Z,23.98
2019-06-08T06:06:11.501Z,24.01
2019-06-08T06:08:42.691Z,24.15
2019-06-08T06:11:13.783Z,24.13
2019-06-08T06:13:45.385Z,24.25
2019-06-08T06:16:16.497Z,24.37
2019-06-08T06:18:47.637Z,24.45
2019-06-08T06:21:18.706Z,24.57
2019-06-08T06:23:49.765Z,24.68
2019-06-08T06:26:20.991Z,24.80
2019-06-08T06:28:52.210Z,24.61
2019-06-08T06:31:23.362Z,24.66
2019-06-08T06:33:54.435Z,24.79
2019-06-08T06:36:25.733Z,24.99
2019-06-08T06:38:56.965Z,25.03
2019-06-08T06:41:28.036Z,25.14
2019-06-08T06:43:59.012Z,25.17
2019-06-08T06:46:30.131Z,25.26
2019-06-08T06:49:01.302Z,25.29
2019-06-08T06:51:34.010Z,25.20
2019-06-08T06:54:05.230Z,25.50
2019-06-08T06:56:36.405Z,25.52
2019-06-08T06:59:07.528Z,25.58
2019-06-08T07:01:38.603Z,25.46
2019-06-08T07:04:10.471Z,25.52
2019-06-08T07:06:41.556Z,25.78
2019-06-08T07:09:12.679Z,25.96
2019-06-08T07:11:44.504Z,25.86
2019-06-08T07:14:15.953Z,26.09
2019-06-08T07:16:47.762Z,26.19
2019-06-08T07:19:19.080Z,26.42
2019-06-08T07:21:50.328Z,26.65
2019-06-08T07:24:21.480Z,26.69
2019-06-08T07:26:52.778Z,27.10
2019-06-08T07:29:23.907Z,28.11
2019-06-08T07:31:55.416Z,28.84
2019-06-08T07:34:26.607Z,29.48
2019-06-08T07:36:59.594Z,29.62
2019-06-08T07:39:30.814Z,29.60
2019-06-08T07:42:01.797Z,29.49
2019-06-08T07:44:32.835Z,29.43
2019-06-08T07:47:04.022Z,29.38
2019-06-08T07:49:35.244Z,29.40
2019-06-08T07:52:10.354Z,28.92
2019-06-08T07:54:39.198Z,29.16
2019-06-08T07:57:10.236Z,29.37
2019-06-08T07:59:41.359Z,29.30
2019-06-08T08:02:12.453Z,29.40
2019-06-08T08:04:43.446Z,29.65
2019-06-08T08:07:14.860Z,29.88
2019-06-08T08:09:45.984Z,30.12
2019-06-08T08:12:17.262Z,30.61
2019-06-08T08:14:48.760Z,30.67
2019-06-08T08:17:19.926Z,31.04
2019-06-08T08:19:51.318Z,30.96
2019-06-08T08:22:26.160Z,31.11
2019-06-08T08:24:58.116Z,31.41
2019-06-08T08:27:28.124Z,31.55
2019-06-08T08:30:01.709Z,31.23
2019-06-08T08:32:32.352Z,30.98
2019-06-08T08:35:03.671Z,31.01
2019-06-08T08:37:34.970Z,30.73
2019-06-08T08:40:08.779Z,31.01
2019-06-08T08:42:39.747Z,31.02
2019-06-08T08:45:13.117Z,30.55
2019-06-08T08:47:44.326Z,30.71
2019-06-08T08:50:15.688Z,30.64
2019-06-08T08:52:47.831Z,30.29
2019-06-08T08:55:20.629Z,30.26
2019-06-08T08:57:53.263Z,30.32
2019-06-08T09:00:27.988Z,30.27
2019-06-08T09:03:19.336Z,30.08
2019-06-08T09:05:31.237Z,30.34
2019-06-08T09:08:03.864Z,30.09
2019-06-08T09:10:35.355Z,30.28
2019-06-08T09:13:09.276Z,30.37
2019-06-08T09:15:40.894Z,29.89
2019-06-08T09:18:12.049Z,30.40
2019-06-08T09:20:43.299Z,30.70
2019-06-08T09:23:16.506Z,30.97
2019-06-08T09:25:48.351Z,30.94
2019-06-08T09:28:19.772Z,31.30
2019-06-08T09:30:51.977Z,31.20
2019-06-08T09:33:23.390Z,31.10
2019-06-08T09:35:54.892Z,31.04
2019-06-08T09:38:28.485Z,31.21
2019-06-08T09:41:01.220Z,31.58
2019-06-08T09:43:31.697Z,31.86
2019-06-08T09:46:05.263Z,31.78
2019-06-08T09:48:38.050Z,32.28
2019-06-08T09:51:09.254Z,32.95
2019-06-08T09:53:41.846Z,32.57
2019-06-08T09:56:12.982Z,32.67
2019-06-08T09:58:44.081Z,32.81
2019-06-08T10:01:15.487Z,32.72
2019-06-08T10:03:48.236Z,32.86
2019-06-08T10:06:19.431Z,33.46
2019-06-08T10:08:50.440Z,33.50
2019-06-08T10:11:21.467Z,33.84
2019-06-08T10:13:54.374Z,32.93
2019-06-08T10:16:28.028Z,33.68
2019-06-08T10:19:02.301Z,33.01
2019-06-08T10:21:31.312Z,32.05
2019-06-08T10:24:04.804Z,31.93
2019-06-08T10:26:37.508Z,31.89
2019-06-08T10:29:10.316Z,31.76
2019-06-08T10:31:43.535Z,31.68
2019-06-08T10:34:13.814Z,32.15
2019-06-08T10:36:44.850Z,32.39
2019-06-08T10:39:17.479Z,32.90
2019-06-08T10:41:51.667Z,32.89
2019-06-08T10:44:22.417Z,33.15
2019-06-08T10:46:53.575Z,33.32
2019-06-08T10:49:25.125Z,33.64
2019-06-08T10:51:59.012Z,33.56
2019-06-08T10:54:29.048Z,33.70
2019-06-08T10:57:02.568Z,33.81
2019-06-08T10:59:32.784Z,33.63
2019-06-08T11:02:06.203Z,33.20
2019-06-08T11:04:38.871Z,33.37
2019-06-08T11:07:15.812Z,33.08
2019-06-08T11:09:43.757Z,33.09
2019-06-08T11:12:16.162Z,33.13
2019-06-08T11:14:48.152Z,33.27
2019-06-08T11:17:19.405Z,33.24
2019-06-08T11:19:50.497Z,33.44
2019-06-08T11:22:21.615Z,33.52
2019-06-08T11:24:52.736Z,33.15
2019-06-08T11:27:23.872Z,33.32
2019-06-08T11:29:57.453Z,33.31
2019-06-08T11:32:27.881Z,32.49
2019-06-08T11:34:59.881Z,32.55
2019-06-08T11:37:30.805Z,32.79
2019-06-08T11:40:02.144Z,32.03
2019-06-08T11:42:33.438Z,32.56
2019-06-08T11:45:11.057Z,32.72
2019-06-08T11:47:40.636Z,32.83
2019-06-08T11:50:13.354Z,32.31
2019-06-08T11:52:45.058Z,32.48
2019-06-08T11:55:18.132Z,32.76
2019-06-08T11:57:49.477Z,32.96
2019-06-08T12:00:42.001Z,33.15
2019-06-08T12:03:13.156Z,32.67
2019-06-08T12:05:44.438Z,32.28
2019-06-08T12:08:17.645Z,32.60
2019-06-08T12:10:49.165Z,32.47
2019-06-08T12:13:20.460Z,32.10
2019-06-08T12:15:51.595Z,32.45
2019-06-08T12:18:22.886Z,33.09
2019-06-08T12:20:53.967Z,33.13
2019-06-08T12:23:25.165Z,33.09
2019-06-08T12:25:56.202Z,32.95
2019-06-08T12:28:28.033Z,32.78
2019-06-08T12:31:01.044Z,32.39
2019-06-08T12:33:31.937Z,32.15
2019-06-08T12:36:02.768Z,32.31
2019-06-08T12:38:34.738Z,32.76
2019-06-08T12:41:09.187Z,33.26
2019-06-08T12:43:38.742Z,32.86
2019-06-08T12:46:12.593Z,32.92
2019-06-08T12:48:42.592Z,33.04
2019-06-08T12:51:14.881Z,32.59
2019-06-08T12:53:46.494Z,32.91
2019-06-08T12:56:22.247Z,32.35
2019-06-08T12:58:51.061Z,32.09
2019-06-08T13:01:22.251Z,31.93
2019-06-08T13:03:53.172Z,31.02
2019-06-08T13:06:24.243Z,30.35
2019-06-08T13:08:57.492Z,30.68
2019-06-08T13:11:28.406Z,30.56
2019-06-08T13:13:59.574Z,30.71
2019-06-08T13:16:30.558Z,30.73
2019-06-08T13:19:01.554Z,30.42
2019-06-08T13:21:35.385Z,30.60
2019-06-08T13:24:05.468Z,30.74
2019-06-08T13:26:36.673Z,30.58
2019-06-08T13:29:09.188Z,30.56
2019-06-08T13:31:40.386Z,30.43
2019-06-08T13:34:14.277Z,30.50
2019-06-08T13:36:44.148Z,30.53
2019-06-08T13:39:15.261Z,29.80
2019-06-08T13:41:48.177Z,30.06
2019-06-08T13:44:19.819Z,29.62
2019-06-08T13:46:50.929Z,29.47
2019-06-08T13:49:25.544Z,29.70
2019-06-08T13:51:54.881Z,29.60
2019-06-08T13:54:30.811Z,29.34
2019-06-08T13:56:59.112Z,29.05
2019-06-08T13:59:30.938Z,29.04
2019-06-08T14:02:02.125Z,29.02
2019-06-08T14:04:34.905Z,29.03
2019-06-08T14:07:07.777Z,28.96
2019-06-08T14:09:38.933Z,28.69
2019-06-08T14:12:10.090Z,28.69
2019-06-08T14:14:41.306Z,28.64
2019-06-08T14:17:12.686Z,28.55
2019-06-08T14:19:43.606Z,28.40
2019-06-08T14:22:14.653Z,28.53
2019-06-08T14:24:47.833Z,28.52
2019-06-08T14:27:19.332Z,28.41
2019-06-08T14:29:51.355Z,28.45
2019-06-08T14:32:22.531Z,27.78
2019-06-08T14:34:53.566Z,28.07
2019-06-08T14:37:24.932Z,27.94
2019-06-08T14:39:57.438Z,27.81
2019-06-08T14:42:31.353Z,27.37
2019-06-08T14:45:01.526Z,27.52
2019-06-08T14:47:32.788Z,27.45
2019-06-08T14:50:04.239Z,27.31
2019-06-08T14:52:37.926Z,27.29
2019-06-08T14:55:08.158Z,27.55
2019-06-08T14:57:40.286Z,27.82
2019-06-08T15:00:13.473Z,27.89
2019-06-08T15:02:44.542Z,27.96
2019-06-08T15:05:18.140Z,28.13
2019-06-08T15:07:48.573Z,27.97
2019-06-08T15:10:21.475Z,27.90
2019-06-08T15:12:53.706Z,27.91
2019-06-08T15:15:25.870Z,27.84
2019-06-08T15:17:58.397Z,27.83
2019-06-08T15:20:30.346Z,27.94
2019-06-08T15:23:01.541Z,27.98
2019-06-08T15:25:33.048Z,27.92
2019-06-08T15:28:04.257Z,27.75
2019-06-08T15:30:38.031Z,27.64
2019-06-08T15:33:09.415Z,27.63
2019-06-08T15:35:40.543Z,27.86
2019-06-08T15:38:11.909Z,27.79
2019-06-08T15:40:43.361Z,27.69
2019-06-08T15:43:14.485Z,27.68
2019-06-08T15:45:48.901Z,27.47
2019-06-08T15:48:20.471Z,27.47
2019-06-08T15:50:51.277Z,27.42
2019-06-08T15:53:22.509Z,27.50
2019-06-08T15:55:53.825Z,27.55
2019-06-08T15:58:24.887Z,27.53
2019-06-08T16:00:56.051Z,27.32
2019-06-08T16:03:27.444Z,27.11
2019-06-08T16:05:58.667Z,26.79
2019-06-08T16:08:30.285Z,26.57
2019-06-08T16:11:01.703Z,26.58
2019-06-08T16:13:33.055Z,26.05
2019-06-08T16:16:04.239Z,25.90
2019-06-08T16:18:36.000Z,25.96
2019-06-08T16:21:07.271Z,25.91
2019-06-08T16:23:38.433Z,25.97
2019-06-08T16:26:09.632Z,25.94
2019-06-08T16:28:40.581Z,25.91
2019-06-08T16:31:13.403Z,25.82
2019-06-08T16:33:44.450Z,26.00
2019-06-08T16:36:15.774Z,25.58
2019-06-08T16:38:47.044Z,25.46
2019-06-08T16:41:18.062Z,25.42
2019-06-08T16:43:49.674Z,25.18
2019-06-08T16:46:20.687Z,25.28
2019-06-08T16:48:51.843Z,24.93
2019-06-08T16:51:22.991Z,25.06
2019-06-08T16:53:54.062Z,24.94
2019-06-08T16:56:25.268Z,24.91
2019-06-08T16:58:56.335Z,24.73
2019-06-08T17:01:28.364Z,24.48
2019-06-08T17:03:59.521Z,24.59
2019-06-08T17:06:31.158Z,24.54
2019-06-08T17:09:02.497Z,24.59
2019-06-08T17:11:33.755Z,24.56
2019-06-08T17:14:05.410Z,24.50
2019-06-08T17:16:36.552Z,24.47
2019-06-08T17:19:07.662Z,24.45
2019-06-08T17:21:38.624Z,24.34
2019-06-08T17:24:09.952Z,24.17
2019-06-08T17:26:40.908Z,24.15
2019-06-08T17:29:11.988Z,24.02
2019-06-08T17:31:42.920Z,23.94
2019-06-08T17:34:13.978Z,23.79
2019-06-08T17:36:45.049Z,23.68
2019-06-08T17:39:16.223Z,23.63
2019-06-08T17:41:47.396Z,23.66
2019-06-08T17:44:20.062Z,23.57
2019-06-08T17:46:51.526Z,23.56
2019-06-08T17:49:22.486Z,23.45
2019-06-08T17:51:53.808Z,23.44
2019-06-08T17:54:25.035Z,23.39
2019-06-08T17:56:56.334Z,23.34
2019-06-08T17:59:28.840Z,23.39
2019-06-08T18:01:59.991Z,23.31
2019-06-08T18:04:31.394Z,23.12
2019-06-08T18:07:02.620Z,23.03
2019-06-08T18:09:33.791Z,22.86
2019-06-08T18:12:07.618Z,22.91
2019-06-08T18:14:41.705Z,22.81
2019-06-08T18:17:11.640Z,22.46
2019-06-08T18:19:46.248Z,22.23
2019-06-08T18:22:18.437Z,22.15
2019-06-08T18:24:48.630Z,22.07
2019-06-08T18:27:19.565Z,22.04
2019-06-08T18:29:50.800Z,21.97
2019-06-08T18:32:21.838Z,21.92
2019-06-08T18:34:53.122Z,21.80
2019-06-08T18:37:24.330Z,21.78
2019-06-08T18:39:57.840Z,21.77
2019-06-08T18:42:28.664Z,21.81
2019-06-08T18:44:59.660Z,21.80
2019-06-08T18:47:30.785Z,21.84
2019-06-08T18:50:01.941Z,21.83
2019-06-08T18:52:32.868Z,21.74
2019-06-08T18:55:08.175Z,21.78
2019-06-08T18:57:39.873Z,21.77
2019-06-08T19:00:12.414Z,21.73
2019-06-08T19:02:46.250Z,21.70
2019-06-08T19:05:20.730Z,21.64
2019-06-08T19:07:51.934Z,21.63
2019-06-08T19:10:37.863Z,21.58
2019-06-08T19:13:08.857Z,21.58
2019-06-08T19:15:44.274Z,21.51
2019-06-08T19:18:13.148Z,21.48
2019-06-08T19:20:47.226Z,21.38
2019-06-08T19:23:20.665Z,21.40
2019-06-08T19:25:49.811Z,21.35
2019-06-08T19:28:35.220Z,21.21
2019-06-08T19:30:54.031Z,21.25
2019-06-08T19:33:27.590Z,21.25
2019-06-08T19:35:58.447Z,21.25
2019-06-08T19:38:29.506Z,21.26
2019-06-08T19:41:00.621Z,21.23
2019-06-08T19:43:31.770Z,21.27
2019-06-08T19:46:02.718Z,21.29
2019-06-08T19:48:33.549Z,21.29
2019-06-08T19:51:04.530Z,21.36
2019-06-08T19:53:41.622Z,21.33
2019-06-08T19:56:08.110Z,21.36
2019-06-08T19:58:52.404Z,21.42
2019-06-08T20:01:12.263Z,21.44
2019-06-08T20:03:44.711Z,21.44
2019-06-08T20:06:17.601Z,21.43
2019-06-08T20:08:51.139Z,21.48
2019-06-08T20:11:21.227Z,21.49
2019-06-08T20:13:52.312Z,21.53
2019-06-08T20:16:23.360Z,21.56
2019-06-08T20:18:54.605Z,21.61
2019-06-08T20:21:27.586Z,21.60
2019-06-08T20:23:58.713Z,21.63
2019-06-08T20:26:30.047Z,21.63
2019-06-08T20:29:12.106Z,21.65
2019-06-08T20:31:33.841Z,21.64
2019-06-08T20:34:06.948Z,21.63
2019-06-08T20:36:37.743Z,21.63
2019-06-08T20:39:09.586Z,21.64
2019-06-08T20:41:41.754Z,21.63
2019-06-08T20:44:12.888Z,21.63
2019-06-08T20:46:44.123Z,21.58
2019-06-08T20:49:17.164Z,21.58
2019-06-08T20:51:49.419Z,21.60
2019-06-08T20:54:20.665Z,21.56
2019-06-08T20:56:52.133Z,21.53
2019-06-08T20:59:30.950Z,21.48
2019-06-08T21:01:58.861Z,21.45
2019-06-08T21:04:30.276Z,21.43
2019-06-08T21:07:01.351Z,21.39
2019-06-08T21:09:32.383Z,21.40
2019-06-08T21:12:03.799Z,21.37
2019-06-08T21:14:34.693Z,21.36
2019-06-08T21:17:07.644Z,21.28
2019-06-08T21:19:38.501Z,21.29
2019-06-08T21:22:11.035Z,21.24
2019-06-08T21:24:42.001Z,21.21
2019-06-08T21:27:12.986Z,21.25
2019-06-08T21:29:49.082Z,21.22
2019-06-08T21:32:17.751Z,21.18
2019-06-08T21:34:51.736Z,21.08
2019-06-08T21:37:21.541Z,21.02
2019-06-08T21:39:55.371Z,21.02
2019-06-08T21:42:27.653Z,20.99
2019-06-08T21:44:59.995Z,20.86
2019-06-08T21:47:30.611Z,20.89
2019-06-08T21:50:01.728Z,20.89
2019-06-08T21:52:32.709Z,20.89
2019-06-08T21:55:03.850Z,20.87
2019-06-08T21:57:36.983Z,20.83
2019-06-08T22:00:29.407Z,20.80
2019-06-08T22:02:47.831Z,20.73
2019-06-08T22:05:18.362Z,20.62
2019-06-08T22:07:50.095Z,20.61
2019-06-08T22:10:21.401Z,20.55
2019-06-08T22:12:53.829Z,20.55
2019-06-08T22:15:27.152Z,20.54
2019-06-08T22:18:00.144Z,20.51
2019-06-08T22:20:31.157Z,20.46
2019-06-08T22:23:02.061Z,20.38
2019-06-08T22:25:33.383Z,20.30
2019-06-08T22:28:07.026Z,20.31
2019-06-08T22:30:42.738Z,20.29
2019-06-08T22:33:09.802Z,20.25
2019-06-08T22:35:40.850Z,20.25
2019-06-08T22:38:11.825Z,20.20
2019-06-08T22:40:42.950Z,20.16
2019-06-08T22:43:14.080Z,20.14
2019-06-08T22:45:45.131Z,20.10
2019-06-08T22:48:18.638Z,20.08
2019-06-08T22:50:48.676Z,20.07
2019-06-08T22:53:19.546Z,20.02
2019-06-08T22:55:50.518Z,19.97
2019-06-08T22:58:21.598Z,19.90
2019-06-08T23:00:53.197Z,19.86
2019-06-08T23:03:25.130Z,19.76
2019-06-08T23:05:59.744Z,19.71
2019-06-08T23:08:29.184Z,19.67
2019-06-08T23:11:02.066Z,19.53
2019-06-08T23:13:33.430Z,19.46
2019-06-08T23:16:06.215Z,19.40
2019-06-08T23:18:37.421Z,19.36
2019-06-08T23:21:09.121Z,19.39
2019-06-08T23:23:40.107Z,19.40
2019-06-08T23:26:11.243Z,19.40
2019-06-08T23:28:42.234Z,19.42
2019-06-08T23:31:22.522Z,19.40
2019-06-08T23:33:48.299Z,19.39
2019-06-08T23:36:45.641Z,19.40
2019-06-08T23:38:52.208Z,19.39
2019-06-08T23:41:23.444Z,19.36
2019-06-08T23:43:54.689Z,19.37
2019-06-08T23:46:27.363Z,19.35
2019-06-08T23:49:01.521Z,19.35
2019-06-08T23:51:31.852Z,19.32
2019-06-08T23:54:04.262Z,19.27
2019-06-08T23:56:37.062Z,19.24
2019-06-08T23:59:09.454Z,19.22
